sensor_id;sensor_type;location;lat;lon;timestamp;P1;durP1;ratioP1;P2;durP2;ratioP2
23434;SDS011;11890;45.380;11.028;2023-04-01T00:00:53;34.85;;;23.77;;
23434;SDS011;11890;45.380;11.028;2023-04-01T00:03:21;41.88;;;24.60;;
23434;SDS011;11890;45.380;11.028;2023-04-01T00:05:51;35.97;;;23.42;;
23434;SDS011;11890;45.380;11.028;2023-04-01T00:08:19;37.63;;;23.83;;
23434;SDS011;11890;45.380;11.028;2023-04-01T00:10:47;35.20;;;23.38;;
23434;SDS011;11890;45.380;11.028;2023-04-01T00:13:15;42.90;;;25.70;;
23434;SDS011;11890;45.380;11.028;2023-04-01T00:15:43;38.55;;;24.40;;
23434;SDS011;11890;45.380;11.028;2023-04-01T00:18:12;41.95;;;24.90;;
23434;SDS011;11890;45.380;11.028;2023-04-01T00:20:44;37.17;;;23.95;;
23434;SDS011;11890;45.380;11.028;2023-04-01T00:23:13;35.33;;;22.07;;
23434;SDS011;11890;45.380;11.028;2023-04-01T00:25:41;32.33;;;20.42;;
23434;SDS011;11890;45.380;11.028;2023-04-01T00:28:09;30.88;;;20.50;;
23434;SDS011;11890;45.380;11.028;2023-04-01T00:30:37;33.20;;;19.30;;
23434;SDS011;11890;45.380;11.028;2023-04-01T00:33:05;35.65;;;21.80;;
23434;SDS011;11890;45.380;11.028;2023-04-01T00:35:36;35.42;;;22.90;;
23434;SDS011;11890;45.380;11.028;2023-04-01T00:38:04;39.15;;;23.60;;
23434;SDS011;11890;45.380;11.028;2023-04-01T00:40:38;32.10;;;20.75;;
23434;SDS011;11890;45.380;11.028;2023-04-01T00:43:14;31.48;;;18.58;;
23434;SDS011;11890;45.380;11.028;2023-04-01T00:45:43;26.67;;;18.33;;
23434;SDS011;11890;45.380;11.028;2023-04-01T00:48:16;34.45;;;22.15;;
23434;SDS011;11890;45.380;11.028;2023-04-01T00:50:46;38.78;;;24.13;;
23434;SDS011;11890;45.380;11.028;2023-04-01T00:53:15;39.15;;;23.33;;
23434;SDS011;11890;45.380;11.028;2023-04-01T00:55:45;44.75;;;24.13;;
23434;SDS011;11890;45.380;11.028;2023-04-01T01:00:45;43.38;;;23.52;;
23434;SDS011;11890;45.380;11.028;2023-04-01T01:03:14;39.53;;;24.95;;
23434;SDS011;11890;45.380;11.028;2023-04-01T01:08:18;38.47;;;25.45;;
23434;SDS011;11890;45.380;11.028;2023-04-01T01:10:49;38.05;;;26.48;;
23434;SDS011;11890;45.380;11.028;2023-04-01T01:13:32;43.13;;;26.40;;
23434;SDS011;11890;45.380;11.028;2023-04-01T01:18:44;40.97;;;25.52;;
23434;SDS011;11890;45.380;11.028;2023-04-01T01:29:29;41.70;;;26.25;;
23434;SDS011;11890;45.380;11.028;2023-04-01T01:34:36;33.65;;;22.10;;
23434;SDS011;11890;45.380;11.028;2023-04-01T01:37:12;40.25;;;24.33;;
23434;SDS011;11890;45.380;11.028;2023-04-01T01:39:42;38.67;;;24.00;;
23434;SDS011;11890;45.380;11.028;2023-04-01T01:42:11;36.22;;;22.73;;
23434;SDS011;11890;45.380;11.028;2023-04-01T01:44:40;38.67;;;24.30;;
23434;SDS011;11890;45.380;11.028;2023-04-01T01:47:09;40.33;;;26.98;;
23434;SDS011;11890;45.380;11.028;2023-04-01T01:49:38;48.95;;;29.42;;
23434;SDS011;11890;45.380;11.028;2023-04-01T01:52:07;52.45;;;31.55;;
23434;SDS011;11890;45.380;11.028;2023-04-01T01:54:35;52.72;;;30.80;;
23434;SDS011;11890;45.380;11.028;2023-04-01T01:57:07;49.58;;;31.30;;
23434;SDS011;11890;45.380;11.028;2023-04-01T01:59:40;49.95;;;30.77;;
23434;SDS011;11890;45.380;11.028;2023-04-01T02:02:14;48.75;;;29.63;;
23434;SDS011;11890;45.380;11.028;2023-04-01T02:04:43;47.42;;;29.05;;
23434;SDS011;11890;45.380;11.028;2023-04-01T02:07:18;49.20;;;31.80;;
23434;SDS011;11890;45.380;11.028;2023-04-01T02:09:48;52.83;;;33.15;;
23434;SDS011;11890;45.380;11.028;2023-04-01T02:12:17;59.45;;;35.05;;
23434;SDS011;11890;45.380;11.028;2023-04-01T02:14:54;57.78;;;35.30;;
23434;SDS011;11890;45.380;11.028;2023-04-01T02:17:26;49.22;;;30.60;;
23434;SDS011;11890;45.380;11.028;2023-04-01T02:22:28;49.00;;;29.10;;
23434;SDS011;11890;45.380;11.028;2023-04-01T02:24:58;47.55;;;29.58;;
23434;SDS011;11890;45.380;11.028;2023-04-01T02:27:27;54.75;;;29.40;;
23434;SDS011;11890;45.380;11.028;2023-04-01T02:29:56;45.70;;;28.02;;
23434;SDS011;11890;45.380;11.028;2023-04-01T02:32:25;43.38;;;28.55;;
23434;SDS011;11890;45.380;11.028;2023-04-01T02:34:53;41.50;;;27.60;;
23434;SDS011;11890;45.380;11.028;2023-04-01T02:37:21;51.90;;;29.45;;
23434;SDS011;11890;45.380;11.028;2023-04-01T02:39:49;42.35;;;26.80;;
23434;SDS011;11890;45.380;11.028;2023-04-01T02:42:17;43.75;;;27.15;;
23434;SDS011;11890;45.380;11.028;2023-04-01T02:44:45;43.67;;;28.85;;
23434;SDS011;11890;45.380;11.028;2023-04-01T02:47:13;41.47;;;26.77;;
23434;SDS011;11890;45.380;11.028;2023-04-01T02:49:41;44.20;;;28.38;;
23434;SDS011;11890;45.380;11.028;2023-04-01T02:52:09;43.10;;;28.60;;
23434;SDS011;11890;45.380;11.028;2023-04-01T02:54:37;32.72;;;21.23;;
23434;SDS011;11890;45.380;11.028;2023-04-01T02:57:05;33.88;;;20.90;;
23434;SDS011;11890;45.380;11.028;2023-04-01T02:59:33;38.08;;;24.02;;
23434;SDS011;11890;45.380;11.028;2023-04-01T03:02:01;44.05;;;25.30;;
23434;SDS011;11890;45.380;11.028;2023-04-01T03:04:29;38.72;;;25.20;;
23434;SDS011;11890;45.380;11.028;2023-04-01T03:06:56;33.80;;;22.48;;
23434;SDS011;11890;45.380;11.028;2023-04-01T03:09:24;36.72;;;22.83;;
23434;SDS011;11890;45.380;11.028;2023-04-01T03:11:52;43.33;;;23.70;;
23434;SDS011;11890;45.380;11.028;2023-04-01T03:14:20;38.75;;;23.67;;
23434;SDS011;11890;45.380;11.028;2023-04-01T03:16:48;34.55;;;23.80;;
23434;SDS011;11890;45.380;11.028;2023-04-01T03:19:16;36.83;;;24.30;;
23434;SDS011;11890;45.380;11.028;2023-04-01T03:21:44;33.10;;;24.02;;
23434;SDS011;11890;45.380;11.028;2023-04-01T03:24:12;31.95;;;21.88;;
23434;SDS011;11890;45.380;11.028;2023-04-01T03:26:40;31.20;;;20.30;;
23434;SDS011;11890;45.380;11.028;2023-04-01T03:29:08;29.50;;;20.52;;
23434;SDS011;11890;45.380;11.028;2023-04-01T03:31:37;30.70;;;21.42;;
23434;SDS011;11890;45.380;11.028;2023-04-01T03:34:05;32.30;;;22.05;;
23434;SDS011;11890;45.380;11.028;2023-04-01T03:36:33;28.02;;;19.13;;
23434;SDS011;11890;45.380;11.028;2023-04-01T03:39:02;21.90;;;15.93;;
23434;SDS011;11890;45.380;11.028;2023-04-01T03:41:38;23.75;;;16.73;;
23434;SDS011;11890;45.380;11.028;2023-04-01T03:44:06;30.05;;;18.95;;
23434;SDS011;11890;45.380;11.028;2023-04-01T03:46:34;28.55;;;20.52;;
23434;SDS011;11890;45.380;11.028;2023-04-01T03:49:06;33.15;;;21.67;;
23434;SDS011;11890;45.380;11.028;2023-04-01T03:51:41;34.92;;;22.67;;
23434;SDS011;11890;45.380;11.028;2023-04-01T03:54:10;28.85;;;20.08;;
23434;SDS011;11890;45.380;11.028;2023-04-01T03:56:38;30.83;;;20.65;;
23434;SDS011;11890;45.380;11.028;2023-04-01T03:59:06;35.25;;;23.02;;
23434;SDS011;11890;45.380;11.028;2023-04-01T04:01:35;34.60;;;23.00;;
23434;SDS011;11890;45.380;11.028;2023-04-01T04:04:03;31.77;;;20.80;;
23434;SDS011;11890;45.380;11.028;2023-04-01T04:06:32;20.38;;;15.52;;
23434;SDS011;11890;45.380;11.028;2023-04-01T04:09:01;19.33;;;13.77;;
23434;SDS011;11890;45.380;11.028;2023-04-01T04:11:30;20.48;;;14.95;;
23434;SDS011;11890;45.380;11.028;2023-04-01T04:14:00;25.15;;;18.33;;
23434;SDS011;11890;45.380;11.028;2023-04-01T04:16:34;30.95;;;19.92;;
23434;SDS011;11890;45.380;11.028;2023-04-01T04:19:04;27.10;;;18.25;;
23434;SDS011;11890;45.380;11.028;2023-04-01T04:21:32;29.90;;;19.13;;
23434;SDS011;11890;45.380;11.028;2023-04-01T04:24:00;22.65;;;16.15;;
23434;SDS011;11890;45.380;11.028;2023-04-01T04:26:44;27.65;;;18.17;;
23434;SDS011;11890;45.380;11.028;2023-04-01T04:29:12;25.63;;;17.20;;
23434;SDS011;11890;45.380;11.028;2023-04-01T04:31:40;28.55;;;16.55;;
23434;SDS011;11890;45.380;11.028;2023-04-01T04:34:10;27.85;;;17.73;;
23434;SDS011;11890;45.380;11.028;2023-04-01T04:36:38;30.20;;;18.83;;
23434;SDS011;11890;45.380;11.028;2023-04-01T04:39:06;26.30;;;17.33;;
23434;SDS011;11890;45.380;11.028;2023-04-01T04:41:37;28.75;;;18.38;;
23434;SDS011;11890;45.380;11.028;2023-04-01T04:44:05;27.27;;;18.42;;
23434;SDS011;11890;45.380;11.028;2023-04-01T04:46:33;31.17;;;18.80;;
23434;SDS011;11890;45.380;11.028;2023-04-01T04:49:14;32.08;;;21.50;;
23434;SDS011;11890;45.380;11.028;2023-04-01T04:51:42;34.97;;;20.70;;
23434;SDS011;11890;45.380;11.028;2023-04-01T04:54:12;33.47;;;21.10;;
23434;SDS011;11890;45.380;11.028;2023-04-01T04:56:51;31.83;;;20.55;;
23434;SDS011;11890;45.380;11.028;2023-04-01T04:59:21;31.55;;;20.17;;
23434;SDS011;11890;45.380;11.028;2023-04-01T05:02:04;34.03;;;20.83;;
23434;SDS011;11890;45.380;11.028;2023-04-01T05:04:35;31.27;;;21.13;;
23434;SDS011;11890;45.380;11.028;2023-04-01T05:07:06;27.23;;;19.75;;
23434;SDS011;11890;45.380;11.028;2023-04-01T05:09:34;41.08;;;22.02;;
23434;SDS011;11890;45.380;11.028;2023-04-01T05:12:02;32.90;;;20.38;;
23434;SDS011;11890;45.380;11.028;2023-04-01T05:14:49;32.67;;;19.95;;
23434;SDS011;11890;45.380;11.028;2023-04-01T05:17:17;30.90;;;20.40;;
23434;SDS011;11890;45.380;11.028;2023-04-01T05:19:45;33.13;;;20.35;;
23434;SDS011;11890;45.380;11.028;2023-04-01T05:22:13;34.10;;;20.65;;
23434;SDS011;11890;45.380;11.028;2023-04-01T05:24:42;30.35;;;18.90;;
23434;SDS011;11890;45.380;11.028;2023-04-01T05:27:11;34.85;;;22.77;;
23434;SDS011;11890;45.380;11.028;2023-04-01T05:29:40;33.72;;;22.38;;
23434;SDS011;11890;45.380;11.028;2023-04-01T05:32:24;39.78;;;20.77;;
23434;SDS011;11890;45.380;11.028;2023-04-01T05:34:52;38.22;;;22.10;;
23434;SDS011;11890;45.380;11.028;2023-04-01T05:37:24;38.65;;;24.30;;
23434;SDS011;11890;45.380;11.028;2023-04-01T05:40:04;48.22;;;26.23;;
23434;SDS011;11890;45.380;11.028;2023-04-01T05:42:32;41.90;;;26.92;;
23434;SDS011;11890;45.380;11.028;2023-04-01T05:45:04;42.33;;;26.08;;
23434;SDS011;11890;45.380;11.028;2023-04-01T05:50:15;42.28;;;25.80;;
23434;SDS011;11890;45.380;11.028;2023-04-01T05:52:43;39.35;;;26.15;;
23434;SDS011;11890;45.380;11.028;2023-04-01T05:55:11;39.97;;;25.52;;
23434;SDS011;11890;45.380;11.028;2023-04-01T05:57:40;44.78;;;28.35;;
23434;SDS011;11890;45.380;11.028;2023-04-01T06:00:08;45.35;;;27.75;;
23434;SDS011;11890;45.380;11.028;2023-04-01T06:02:40;45.40;;;28.88;;
23434;SDS011;11890;45.380;11.028;2023-04-01T06:07:41;51.67;;;27.48;;
23434;SDS011;11890;45.380;11.028;2023-04-01T06:10:13;42.05;;;27.95;;
23434;SDS011;11890;45.380;11.028;2023-04-01T06:12:47;44.20;;;26.95;;
23434;SDS011;11890;45.380;11.028;2023-04-01T06:18:30;47.03;;;27.67;;
23434;SDS011;11890;45.380;11.028;2023-04-01T06:31:17;70.55;;;36.38;;
23434;SDS011;11890;45.380;11.028;2023-04-01T06:33:55;71.15;;;38.90;;
23434;SDS011;11890;45.380;11.028;2023-04-01T06:42:13;62.53;;;36.60;;
23434;SDS011;11890;45.380;11.028;2023-04-01T06:51:20;59.10;;;37.05;;
23434;SDS011;11890;45.380;11.028;2023-04-01T06:54:02;55.03;;;34.72;;
23434;SDS011;11890;45.380;11.028;2023-04-01T06:56:52;60.08;;;36.28;;
23434;SDS011;11890;45.380;11.028;2023-04-01T06:59:31;55.72;;;34.15;;
23434;SDS011;11890;45.380;11.028;2023-04-01T07:04:39;53.33;;;33.70;;
23434;SDS011;11890;45.380;11.028;2023-04-01T07:09:52;48.58;;;30.73;;
23434;SDS011;11890;45.380;11.028;2023-04-01T07:12:43;55.50;;;33.08;;
23434;SDS011;11890;45.380;11.028;2023-04-01T07:15:24;45.20;;;31.38;;
23434;SDS011;11890;45.380;11.028;2023-04-01T07:17:54;46.75;;;31.67;;
23434;SDS011;11890;45.380;11.028;2023-04-01T07:20:24;53.47;;;32.35;;
23434;SDS011;11890;45.380;11.028;2023-04-01T07:22:55;54.53;;;33.35;;
23434;SDS011;11890;45.380;11.028;2023-04-01T07:25:45;50.20;;;31.75;;
23434;SDS011;11890;45.380;11.028;2023-04-01T07:28:40;46.90;;;31.83;;
23434;SDS011;11890;45.380;11.028;2023-04-01T07:36:33;66.10;;;39.30;;
23434;SDS011;11890;45.380;11.028;2023-04-01T07:39:06;49.47;;;32.97;;
23434;SDS011;11890;45.380;11.028;2023-04-01T07:47:25;42.95;;;28.35;;
23434;SDS011;11890;45.380;11.028;2023-04-01T07:52:48;43.28;;;28.38;;
23434;SDS011;11890;45.380;11.028;2023-04-01T07:58:10;42.17;;;28.27;;
23434;SDS011;11890;45.380;11.028;2023-04-01T08:20:41;35.10;;;25.08;;
23434;SDS011;11890;45.380;11.028;2023-04-01T08:23:26;38.28;;;26.63;;
23434;SDS011;11890;45.380;11.028;2023-04-01T08:33:42;36.88;;;25.55;;
23434;SDS011;11890;45.380;11.028;2023-04-01T08:39:13;36.80;;;21.45;;
23434;SDS011;11890;45.380;11.028;2023-04-01T08:45:20;32.35;;;20.50;;
23434;SDS011;11890;45.380;11.028;2023-04-01T08:47:50;27.48;;;18.63;;
23434;SDS011;11890;45.380;11.028;2023-04-01T09:13:09;28.50;;;20.83;;
23434;SDS011;11890;45.380;11.028;2023-04-01T09:21:14;27.02;;;18.50;;
23434;SDS011;11890;45.380;11.028;2023-04-01T09:30:28;26.15;;;17.63;;
23434;SDS011;11890;45.380;11.028;2023-04-01T09:32:56;24.38;;;16.98;;
23434;SDS011;11890;45.380;11.028;2023-04-01T09:44:03;23.02;;;16.17;;
23434;SDS011;11890;45.380;11.028;2023-04-01T09:47:03;28.65;;;18.00;;
23434;SDS011;11890;45.380;11.028;2023-04-01T09:52:52;24.88;;;15.10;;
23434;SDS011;11890;45.380;11.028;2023-04-01T10:01:20;20.55;;;14.15;;
23434;SDS011;11890;45.380;11.028;2023-04-01T23:37:19;33.55;;;19.52;;
23434;SDS011;11890;45.380;11.028;2023-04-01T23:39:51;33.05;;;19.38;;
23434;SDS011;11890;45.380;11.028;2023-04-01T23:42:29;33.42;;;20.67;;
23434;SDS011;11890;45.380;11.028;2023-04-01T23:44:58;36.60;;;21.65;;
23434;SDS011;11890;45.380;11.028;2023-04-01T23:47:31;34.65;;;19.85;;
23434;SDS011;11890;45.380;11.028;2023-04-01T23:50:04;30.15;;;18.77;;
23434;SDS011;11890;45.380;11.028;2023-04-01T23:52:41;35.20;;;19.92;;
23434;SDS011;11890;45.380;11.028;2023-04-01T23:57:38;34.45;;;20.25;;
